Time;durP1;ratioP1;P1;durP2;ratioP2;P2;SDS_P1;SDS_P2;PMS_P1;PMS_P2;Temp;Humidity;BMP_temperature;BMP_pressure;BME280_temperature;BME280_humidity;BME280_pressure;Samples;Min_cycle;Max_cycle;Signal;HPM_P1;HPM_P2
2022/09/10 00:01:17;;;;;;;19.48;15.60;;;14.40;92.80;;;;;;4990167;28;20054;-52
2022/09/10 00:03:42;;;;;;;18.52;16.50;;;14.40;92.80;;;;;;4990046;28;20403;-54
2022/09/10 00:06:10;;;;;;;17.10;15.05;;;14.40;92.90;;;;;;4981825;28;20043;-53
2022/09/10 00:08:38;;;;;;;17.67;14.88;;;14.40;92.90;;;;;;4970079;28;20129;-52
2022/09/10 00:11:10;;;;;;;18.83;16.00;;;14.40;93.00;;;;;;4976379;28;20026;-53
2022/09/10 00:13:38;;;;;;;17.83;14.82;;;14.40;93.00;;;;;;4990060;28;20031;-52
2022/09/10 00:16:09;;;;;;;16.52;14.85;;;14.40;93.00;;;;;;4983738;28;20037;-51
2022/09/10 00:18:36;;;;;;;16.08;14.35;;;14.40;93.00;;;;;;4981254;28;20041;-54
2022/09/10 00:21:06;;;;;;;15.80;14.27;;;14.40;93.00;;;;;;4977844;28;20088;-54
2022/09/10 00:23:34;;;;;;;16.00;14.40;;;14.40;92.90;;;;;;4969285;28;20034;-53
2022/09/10 00:26:13;;;;;;;14.55;13.05;;;14.40;93.00;;;;;;4974916;28;20118;-55
2022/09/10 00:28:40;;;;;;;17.30;15.07;;;14.40;93.00;;;;;;4988773;28;20027;-50
2022/09/10 00:31:06;;;;;;;21.27;15.45;;;14.40;92.90;;;;;;4986697;28;20037;-52
2022/09/10 00:33:31;;;;;;;16.73;14.00;;;14.40;92.90;;;;;;4987226;28;20455;-54
2022/09/10 00:35:57;;;;;;;16.40;14.68;;;14.50;92.90;;;;;;4984024;28;20097;-55
2022/09/10 00:38:23;;;;;;;16.90;15.18;;;14.40;92.90;;;;;;4969801;28;20046;-55
2022/09/10 00:40:49;;;;;;;19.77;15.55;;;14.40;92.90;;;;;;4974012;28;20062;-54
2022/09/10 00:43:20;;;;;;;17.77;15.98;;;14.40;92.90;;;;;;4988101;28;20432;-52
2022/09/10 00:45:55;;;;;;;18.90;16.63;;;14.40;92.90;;;;;;4984892;28;20039;-52
2022/09/10 00:48:28;;;;;;;19.77;16.25;;;14.40;92.90;;;;;;4970094;28;20101;-51
2022/09/10 00:51:03;;;;;;;18.45;15.57;;;14.40;92.90;;;;;;4986654;28;20037;-50
2022/09/10 00:53:29;;;;;;;18.27;16.40;;;14.40;92.80;;;;;;4989626;28;20120;-52
2022/09/10 00:56:01;;;;;;;19.55;17.30;;;14.30;92.90;;;;;;4987656;28;20116;-55
2022/09/10 00:58:28;;;;;;;18.88;16.88;;;14.30;92.90;;;;;;4989077;28;20026;-52
2022/09/10 01:00:59;;;;;;;23.77;17.60;;;14.30;92.90;;;;;;4985219;28;20349;-53
2022/09/10 01:03:28;;;;;;;17.05;15.10;;;14.30;92.90;;;;;;4985375;28;20030;-51
2022/09/10 01:05:58;;;;;;;17.48;15.55;;;14.30;92.90;;;;;;4988602;28;20040;-53
2022/09/10 01:08:26;;;;;;;19.65;16.45;;;14.30;92.90;;;;;;4992920;28;20037;-53
2022/09/10 01:11:21;;;;;;;18.92;16.95;;;14.30;92.90;;;;;;4992273;28;20121;-52
2022/09/10 01:14:18;;;;;;;17.70;15.05;;;14.30;92.90;;;;;;4990688;28;20379;-56
2022/09/10 01:17:31;;;;;;;20.67;18.50;;;14.30;93.00;;;;;;4973980;28;20336;-55
2022/09/10 01:20:12;;;;;;;19.08;17.02;;;14.30;92.90;;;;;;4977016;28;20074;-54
2022/09/10 01:23:03;;;;;;;18.60;16.63;;;14.30;92.90;;;;;;4992199;28;20026;-50
2022/09/10 01:25:48;;;;;;;22.00;18.80;;;14.30;92.90;;;;;;4980092;28;20034;-53
2022/09/10 01:28:32;;;;;;;20.33;18.42;;;14.20;92.90;;;;;;4991228;28;20026;-54
2022/09/10 01:31:21;;;;;;;24.00;17.33;;;14.20;92.90;;;;;;4984099;28;20066;-54
2022/09/10 01:33:58;;;;;;;25.27;16.93;;;14.20;92.80;;;;;;4992385;28;20033;-49
2022/09/10 01:36:27;;;;;;;19.75;17.63;;;14.20;92.90;;;;;;4987897;28;20280;-54
2022/09/10 01:38:53;;;;;;;22.13;18.30;;;14.20;92.90;;;;;;5011930;28;20053;-54
2022/09/10 01:41:22;;;;;;;19.88;17.77;;;14.10;92.80;;;;;;4992035;28;20065;-50
2022/09/10 01:43:48;;;;;;;20.15;17.67;;;14.20;92.90;;;;;;4992082;28;20034;-54
2022/09/10 01:46:28;;;;;;;18.45;16.45;;;14.20;92.90;;;;;;4984436;28;20035;-54
2022/09/10 01:49:38;;;;;;;19.02;16.98;;;14.20;93.00;;;;;;4987162;28;20041;-52
2022/09/10 01:52:14;;;;;;;21.60;18.35;;;14.20;93.00;;;;;;5012672;28;20378;-51
2022/09/10 01:54:55;;;;;;;21.13;19.02;;;14.20;93.10;;;;;;5004601;28;20088;-50
2022/09/10 01:57:57;;;;;;;21.55;19.15;;;14.30;93.10;;;;;;4989116;28;20389;-51
2022/09/10 02:00:24;;;;;;;21.60;18.45;;;14.30;93.20;;;;;;4990106;28;20085;-50
2022/09/10 02:03:10;;;;;;;19.75;17.55;;;14.40;93.20;;;;;;4990606;28;20100;-54
2022/09/10 02:05:40;;;;;;;22.75;19.10;;;14.30;93.10;;;;;;4989455;28;20463;-52
2022/09/10 02:08:19;;;;;;;20.67;18.52;;;14.30;93.10;;;;;;4991833;28;20034;-51
2022/09/10 02:10:54;;;;;;;19.95;17.80;;;14.40;93.10;;;;;;4990680;28;20121;-50
2022/09/10 02:13:21;;;;;;;20.77;17.10;;;14.40;93.10;;;;;;4990434;28;20399;-51
2022/09/10 02:15:48;;;;;;;19.60;15.75;;;14.40;93.10;;;;;;4988845;28;20530;-52
2022/09/10 02:18:16;;;;;;;21.02;16.45;;;14.40;93.10;;;;;;4991778;28;20108;-53
2022/09/10 02:20:44;;;;;;;22.17;18.35;;;14.40;93.10;;;;;;4990301;28;20030;-52
2022/09/10 02:23:11;;;;;;;20.92;17.17;;;14.40;93.10;;;;;;4991739;28;20034;-50
2022/09/10 02:25:37;;;;;;;19.33;17.17;;;14.40;93.00;;;;;;4990786;28;20037;-54
2022/09/10 02:28:04;;;;;;;19.83;15.77;;;14.40;93.00;;;;;;4990730;28;20034;-51
2022/09/10 02:30:30;;;;;;;20.10;17.02;;;14.40;93.00;;;;;;4986731;28;20029;-52
2022/09/10 02:32:55;;;;;;;19.70;17.50;;;14.40;92.90;;;;;;4971305;28;20360;-52
2022/09/10 02:35:21;;;;;;;20.20;17.50;;;14.30;93.00;;;;;;4975455;28;20022;-54
2022/09/10 02:37:49;;;;;;;21.45;15.20;;;14.40;93.00;;;;;;4991044;28;20057;-51
2022/09/10 02:40:18;;;;;;;20.02;17.10;;;14.30;93.00;;;;;;4990832;28;20070;-52
2022/09/10 02:42:45;;;;;;;18.67;16.48;;;14.30;93.00;;;;;;4991255;28;20022;-53
2022/09/10 02:45:14;;;;;;;19.08;16.90;;;14.30;93.00;;;;;;4988455;28;20046;-53
2022/09/10 02:47:40;;;;;;;19.75;17.88;;;14.30;93.00;;;;;;4971994;28;20034;-54
2022/09/10 02:50:10;;;;;;;18.45;16.55;;;14.30;93.10;;;;;;4972809;28;20030;-53
2022/09/10 02:52:38;;;;;;;21.02;17.70;;;14.30;93.10;;;;;;4989714;28;20042;-53
2022/09/10 02:55:04;;;;;;;22.10;17.90;;;14.40;93.10;;;;;;4990157;28;20501;-55
2022/09/10 02:57:29;;;;;;;19.00;16.38;;;14.40;93.10;;;;;;4970953;28;20072;-54
2022/09/10 02:59:55;;;;;;;18.95;16.95;;;14.40;93.10;;;;;;4988430;28;20363;-49
2022/09/10 03:02:21;;;;;;;21.50;17.27;;;14.40;93.20;;;;;;4988589;28;20034;-52
2022/09/10 03:04:47;;;;;;;22.58;18.27;;;14.40;93.20;;;;;;4991026;28;20026;-52
2022/09/10 03:07:16;;;;;;;19.00;15.40;;;14.40;93.20;;;;;;5001222;28;20477;-51
2022/09/10 03:09:41;;;;;;;18.80;16.45;;;14.40;93.20;;;;;;4971314;28;20110;-50
2022/09/10 03:12:07;;;;;;;22.20;16.77;;;14.40;93.20;;;;;;4985495;28;20516;-55
2022/09/10 03:14:33;;;;;;;22.95;18.20;;;14.40;93.10;;;;;;4990815;28;20022;-49
2022/09/10 03:16:59;;;;;;;19.90;17.90;;;14.40;93.20;;;;;;4973319;28;20121;-54
2022/09/10 03:19:25;;;;;;;20.98;18.55;;;14.40;93.10;;;;;;4990135;28;20360;-52
2022/09/10 03:21:51;;;;;;;18.58;15.95;;;14.40;93.10;;;;;;4971257;28;20427;-54
2022/09/10 03:24:17;;;;;;;22.23;19.27;;;14.40;93.20;;;;;;4988042;28;20038;-52
2022/09/10 03:26:43;;;;;;;22.73;20.38;;;14.40;93.20;;;;;;4989159;28;20049;-52
2022/09/10 03:29:09;;;;;;;25.50;20.83;;;14.40;93.10;;;;;;4988730;28;20093;-52
2022/09/10 03:31:35;;;;;;;19.48;17.35;;;14.40;93.20;;;;;;4982804;28;20030;-51
2022/09/10 03:34:00;;;;;;;21.55;19.17;;;14.40;93.20;;;;;;4985358;28;20451;-50
2022/09/10 03:36:30;;;;;;;20.45;18.27;;;14.40;93.20;;;;;;4980665;28;20042;-53
2022/09/10 03:38:56;;;;;;;22.23;19.92;;;14.40;93.20;;;;;;4970641;28;20078;-50
2022/09/10 03:41:22;;;;;;;21.95;18.98;;;14.40;93.20;;;;;;4979189;28;20042;-53
2022/09/10 03:43:48;;;;;;;22.67;17.77;;;14.40;93.20;;;;;;4989921;28;20034;-52
2022/09/10 03:46:14;;;;;;;23.95;20.20;;;14.40;93.20;;;;;;4982905;28;20035;-53
2022/09/10 03:48:42;;;;;;;23.15;18.27;;;14.40;93.10;;;;;;4977631;28;20061;-52
2022/09/10 03:51:11;;;;;;;22.77;19.38;;;14.40;93.10;;;;;;4989102;28;20038;-53
2022/09/10 03:53:37;;;;;;;27.95;20.90;;;14.40;93.10;;;;;;4988562;28;20088;-51
2022/09/10 03:56:06;;;;;;;22.95;18.88;;;14.40;93.10;;;;;;4995534;28;20026;-52
2022/09/10 03:58:31;;;;;;;24.20;20.95;;;14.40;93.20;;;;;;5009382;28;20026;-51
2022/09/10 04:00:57;;;;;;;24.90;21.17;;;14.40;93.20;;;;;;4996867;28;20038;-50
2022/09/10 04:03:23;;;;;;;24.55;20.92;;;14.40;93.10;;;;;;4982040;28;20031;-52
2022/09/10 04:05:49;;;;;;;24.90;20.98;;;14.40;93.10;;;;;;5001205;28;20041;-54
2022/09/10 04:08:15;;;;;;;22.92;20.17;;;14.40;93.20;;;;;;4980797;28;20371;-52
2022/09/10 04:10:43;;;;;;;23.58;20.30;;;14.40;93.20;;;;;;5004589;28;20031;-50
2022/09/10 04:13:09;;;;;;;26.05;21.23;;;14.40;93.20;;;;;;4988842;28;20018;-50
2022/09/10 04:15:36;;;;;;;21.30;19.00;;;14.40;93.20;;;;;;4987091;28;20030;-49
2022/09/10 04:18:04;;;;;;;29.60;21.38;;;14.40;93.20;;;;;;4988889;28;20023;-49
2022/09/10 04:20:31;;;;;;;23.48;20.33;;;14.40;93.10;;;;;;4989315;28;20038;-50
2022/09/10 04:22:59;;;;;;;22.05;19.73;;;14.40;93.20;;;;;;4989101;28;20093;-52
2022/09/10 04:25:25;;;;;;;24.23;21.60;;;14.40;93.20;;;;;;4971095;28;20042;-49
2022/09/10 04:27:50;;;;;;;22.50;19.35;;;14.40;93.10;;;;;;4989234;28;20034;-53
2022/09/10 04:30:19;;;;;;;23.52;21.02;;;14.40;93.10;;;;;;5003693;28;20100;-52
2022/09/10 04:32:44;;;;;;;22.65;20.30;;;14.40;93.10;;;;;;4996648;28;20050;-50
2022/09/10 04:35:14;;;;;;;27.75;20.95;;;14.40;93.20;;;;;;4997882;28;20031;-51
2022/09/10 04:37:42;;;;;;;21.55;19.20;;;14.40;93.10;;;;;;5000489;28;20038;-50
2022/09/10 04:40:11;;;;;;;23.42;20.92;;;14.40;93.10;;;;;;5001531;28;20056;-52
2022/09/10 04:42:37;;;;;;;23.17;19.90;;;14.40;93.10;;;;;;5000312;28;20395;-51
2022/09/10 04:45:04;;;;;;;21.15;18.85;;;14.40;93.10;;;;;;4997235;28;20117;-50
2022/09/10 04:47:30;;;;;;;23.40;19.48;;;14.40;93.10;;;;;;4987774;28;20552;-52
2022/09/10 04:49:55;;;;;;;25.58;19.90;;;14.40;93.10;;;;;;5004010;28;20031;-51
2022/09/10 04:52:23;;;;;;;24.30;20.27;;;14.40;93.10;;;;;;5000831;28;20026;-50
2022/09/10 04:54:49;;;;;;;21.90;19.60;;;14.30;93.00;;;;;;5001207;28;20041;-50
2022/09/10 04:57:14;;;;;;;20.73;18.50;;;14.30;93.10;;;;;;4997169;28;20038;-51
2022/09/10 04:59:40;;;;;;;21.48;18.80;;;14.30;93.00;;;;;;4991920;28;20026;-53
2022/09/10 05:02:08;;;;;;;22.38;19.98;;;14.30;93.10;;;;;;4978730;28;20074;-51
2022/09/10 05:04:33;;;;;;;22.65;20.25;;;14.30;93.10;;;;;;4978805;28;20080;-49
2022/09/10 05:07:00;;;;;;;21.95;19.52;;;14.30;93.10;;;;;;4994446;28;20030;-49
2022/09/10 05:09:30;;;;;;;21.63;19.17;;;14.30;93.10;;;;;;4991861;28;20027;-54
2022/09/10 05:11:59;;;;;;;26.52;21.23;;;14.20;93.10;;;;;;4997391;28;20026;-53
2022/09/10 05:14:25;;;;;;;;;;;14.20;93.10;;;;;;5000330;28;20022;-50
2022/09/10 05:16:51;;;;;;;23.92;21.25;;;14.20;93.00;;;;;;5014244;28;19920;-49
2022/09/10 05:19:16;;;;;;;23.17;20.15;;;14.20;93.00;;;;;;5001814;28;20022;-53
2022/09/10 05:21:47;;;;;;;23.30;19.52;;;14.20;93.00;;;;;;4998562;28;20111;-54
2022/09/10 05:24:13;;;;;;;22.15;19.85;;;14.20;93.10;;;;;;4996768;28;20119;-49
2022/09/10 05:26:39;;;;;;;25.23;21.27;;;14.20;93.10;;;;;;5000956;28;20037;-50
2022/09/10 05:29:07;;;;;;;25.88;21.08;;;14.20;93.20;;;;;;5002216;28;20022;-53
2022/09/10 05:31:36;;;;;;;26.58;22.95;;;14.20;93.20;;;;;;4996106;28;20421;-52
2022/09/10 05:34:02;;;;;;;26.77;21.47;;;14.30;93.20;;;;;;5001078;28;20034;-49
2022/09/10 05:36:30;;;;;;;23.98;21.35;;;14.30;93.20;;;;;;4996522;28;20042;-52
2022/09/10 05:38:57;;;;;;;24.48;20.92;;;14.40;93.30;;;;;;4990910;28;20026;-51
2022/09/10 05:41:23;;;;;;;25.13;21.65;;;14.40;93.30;;;;;;4990838;28;20027;-52
2022/09/10 05:43:48;;;;;;;23.63;20.58;;;14.40;93.20;;;;;;5009559;28;20336;-51
2022/09/10 05:46:17;;;;;;;24.63;21.65;;;14.50;93.20;;;;;;4998938;28;20070;-49
2022/09/10 05:48:42;;;;;;;23.50;19.65;;;14.50;93.20;;;;;;5011978;28;20091;-50
2022/09/10 05:51:08;;;;;;;28.42;21.30;;;14.60;93.30;;;;;;4999526;28;20034;-48
2022/09/10 05:53:34;;;;;;;23.90;21.38;;;14.70;93.30;;;;;;5017491;28;20415;-52
2022/09/10 05:56:00;;;;;;;23.30;20.30;;;14.70;93.20;;;;;;4976710;28;20022;-50
2022/09/10 05:58:28;;;;;;;24.42;19.33;;;14.80;93.30;;;;;;4990292;28;20026;-50
2022/09/10 06:00:54;;;;;;;23.35;20.85;;;14.80;93.30;;;;;;4978811;28;20103;-48
2022/09/10 06:03:20;;;;;;;23.77;21.25;;;14.90;93.20;;;;;;4986304;28;20037;-54
2022/09/10 06:05:52;;;;;;;33.03;24.02;;;14.90;93.20;;;;;;4997186;28;20045;-49
2022/09/10 06:08:21;;;;;;;31.98;22.05;;;14.90;93.20;;;;;;4990323;28;20069;-50
2022/09/10 06:11:03;;;;;;;28.83;22.92;;;15.00;93.10;;;;;;4993569;28;20521;-52
2022/09/10 06:13:30;;;;;;;36.63;21.73;;;15.00;93.20;;;;;;5002034;28;20105;-48
2022/09/10 06:15:56;;;;;;;30.23;23.35;;;15.00;93.10;;;;;;4999418;28;20359;-48
2022/09/10 06:18:22;;;;;;;53.22;27.65;;;15.10;93.10;;;;;;4991023;28;20033;-51
2022/09/10 06:20:48;;;;;;;33.38;24.85;;;15.10;93.00;;;;;;4987941;28;20034;-51
2022/09/10 06:23:17;;;;;;;24.92;20.98;;;15.20;93.10;;;;;;4989050;28;20120;-51
2022/09/10 06:25:43;;;;;;;28.25;23.45;;;15.20;93.10;;;;;;4989857;28;20363;-55
2022/09/10 06:28:11;;;;;;;24.45;20.63;;;15.20;92.90;;;;;;4990895;28;20041;-53
2022/09/10 06:30:37;;;;;;;29.02;23.10;;;15.20;93.00;;;;;;4986619;28;20471;-52
2022/09/10 06:33:03;;;;;;;41.80;25.48;;;15.30;93.00;;;;;;4980174;28;20117;-51
2022/09/10 06:35:30;;;;;;;48.05;24.73;;;15.30;93.00;;;;;;4986992;28;20118;-51
2022/09/10 06:37:57;;;;;;;33.15;25.23;;;15.30;93.00;;;;;;4987382;28;20088;-48
2022/09/10 06:40:25;;;;;;;51.03;24.85;;;15.40;93.00;;;;;;4988452;28;20040;-48
2022/09/10 06:42:53;;;;;;;37.50;25.67;;;15.40;93.00;;;;;;4999474;28;20043;-49
2022/09/10 06:45:21;;;;;;;23.50;19.25;;;15.40;92.90;;;;;;4994293;28;20030;-49
2022/09/10 06:47:47;;;;;;;54.10;26.20;;;15.50;93.00;;;;;;4998631;28;20094;-50
2022/09/10 06:50:13;;;;;;;38.85;26.80;;;15.50;92.80;;;;;;4986959;28;20042;-50
2022/09/10 06:52:40;;;;;;;25.63;22.02;;;15.50;92.80;;;;;;4989852;28;20205;-51
2022/09/10 06:55:08;;;;;;;35.33;25.05;;;15.50;92.80;;;;;;4993301;28;20451;-48
2022/09/10 06:57:36;;;;;;;41.08;24.75;;;15.40;92.70;;;;;;5010172;28;20109;-50
2022/09/10 07:00:03;;;;;;;24.25;20.55;;;15.40;92.70;;;;;;4989407;28;20026;-52
2022/09/10 07:02:29;;;;;;;27.92;22.65;;;15.50;92.70;;;;;;4973314;28;20526;-49
2022/09/10 07:04:55;;;;;;;26.25;23.48;;;15.60;92.70;;;;;;4978120;28;20041;-48
2022/09/10 07:07:21;;;;;;;24.02;21.48;;;15.60;92.80;;;;;;4988638;28;20096;-52
2022/09/10 07:09:46;;;;;;;23.88;21.38;;;15.60;92.60;;;;;;4983346;28;20041;-47
2022/09/10 07:12:12;;;;;;;35.55;25.75;;;15.70;92.70;;;;;;4979357;28;20022;-51
2022/09/10 07:14:37;;;;;;;77.18;30.77;;;15.70;92.50;;;;;;4986689;28;20026;-52
2022/09/10 07:17:05;;;;;;;49.38;23.52;;;15.80;92.60;;;;;;4977075;28;20122;-48
2022/09/10 07:19:32;;;;;;;31.70;23.17;;;15.80;92.60;;;;;;4975847;28;20041;-50
2022/09/10 07:21:57;;;;;;;29.90;24.08;;;15.80;92.40;;;;;;4982918;28;20034;-47
2022/09/10 07:24:23;;;;;;;24.88;20.10;;;15.80;92.30;;;;;;4978724;28;20031;-51
2022/09/10 07:26:48;;;;;;;27.25;21.77;;;15.80;92.40;;;;;;4977451;28;20411;-47
2022/09/10 07:29:14;;;;;;;25.67;20.75;;;15.90;92.30;;;;;;4987808;28;20023;-48
2022/09/10 07:31:40;;;;;;;22.42;20.02;;;15.90;92.40;;;;;;4978877;28;20336;-48
2022/09/10 07:34:07;;;;;;;29.55;23.88;;;15.90;92.40;;;;;;4984548;28;20455;-48
2022/09/10 07:36:33;;;;;;;31.15;25.48;;;15.90;92.20;;;;;;4970468;28;20023;-48
2022/09/10 07:39:00;;;;;;;28.17;24.35;;;15.90;92.10;;;;;;4975379;28;20046;-52
2022/09/10 07:41:30;;;;;;;27.60;22.23;;;15.90;92.00;;;;;;4981310;28;20432;-48
2022/09/10 07:43:59;;;;;;;25.23;22.52;;;16.00;91.90;;;;;;4970699;28;20045;-51
2022/09/10 07:46:26;;;;;;;26.23;21.58;;;16.00;92.00;;;;;;4973594;28;20483;-50
2022/09/10 07:48:56;;;;;;;26.80;23.85;;;16.00;91.90;;;;;;4976493;28;20063;-51
2022/09/10 07:51:24;;;;;;;27.73;24.65;;;16.10;92.00;;;;;;4982010;28;20041;-49
2022/09/10 07:53:56;;;;;;;89.68;28.90;;;16.10;91.90;;;;;;4985579;28;20073;-47
2022/09/10 07:56:25;;;;;;;46.47;26.55;;;16.10;91.90;;;;;;4990341;28;20467;-48
2022/09/10 07:58:52;;;;;;;;;;;16.10;91.70;;;;;;4989919;28;20047;-46
2022/09/10 08:01:21;;;;;;;25.60;20.50;;;16.20;91.60;;;;;;4981851;28;19941;-51
2022/09/10 08:03:48;;;;;;;26.15;22.60;;;16.20;91.60;;;;;;4983201;28;20031;-48
2022/09/10 08:06:14;;;;;;;24.33;21.90;;;16.20;91.60;;;;;;4970440;28;20031;-48
2022/09/10 08:08:41;;;;;;;23.00;20.63;;;16.20;91.50;;;;;;4972503;28;20034;-47
2022/09/10 08:11:08;;;;;;;20.15;18.17;;;16.30;91.60;;;;;;4992377;28;20363;-47
2022/09/10 08:13:35;;;;;;;28.63;20.40;;;16.40;91.70;;;;;;4992982;28;20332;-47
2022/09/10 08:16:06;;;;;;;28.98;22.08;;;16.40;91.60;;;;;;4990978;28;20030;-49
2022/09/10 08:18:38;;;;;;;21.38;19.23;;;16.40;91.40;;;;;;4993598;28;20121;-49
2022/09/10 08:21:09;;;;;;;25.58;22.63;;;16.40;91.20;;;;;;4992761;28;20042;-49
2022/09/10 08:23:38;;;;;;;28.70;22.23;;;16.40;91.10;;;;;;4990966;28;20394;-46
2022/09/10 08:26:06;;;;;;;29.92;21.85;;;16.30;90.90;;;;;;4995557;28;20030;-46
2022/09/10 08:28:38;;;;;;;65.00;29.33;;;16.30;91.10;;;;;;4973642;28;20027;-45
2022/09/10 08:31:23;;;;;;;52.15;25.30;;;16.30;90.90;;;;;;4986673;28;20034;-47
2022/09/10 08:33:53;;;;;;;33.80;21.10;;;16.30;90.90;;;;;;4976440;28;20027;-45
2022/09/10 08:36:23;;;;;;;33.63;23.48;;;16.40;91.00;;;;;;4990336;28;20105;-45
2022/09/10 08:38:50;;;;;;;45.70;22.38;;;16.40;90.90;;;;;;4992211;28;20046;-45
2022/09/10 08:41:45;;;;;;;22.50;17.92;;;16.40;90.90;;;;;;4985262;28;20054;-45
2022/09/10 08:44:33;;;;;;;21.27;17.83;;;16.40;90.90;;;;;;4992454;28;20083;-45
2022/09/10 08:47:39;;;;;;;39.65;23.02;;;16.40;91.00;;;;;;4992290;28;20083;-45
2022/09/10 08:50:37;;;;;;;74.70;29.40;;;16.50;90.80;;;;;;4985120;28;20042;-46
2022/09/10 08:53:28;;;;;;;45.60;24.65;;;16.50;90.80;;;;;;4991466;28;20050;-48
2022/09/10 08:56:01;;;;;;;25.50;22.42;;;16.60;90.60;;;;;;5003627;28;20026;-46
2022/09/10 08:59:08;;;;;;;22.63;20.17;;;16.50;90.40;;;;;;4972431;28;20717;-47
2022/09/10 09:01:44;;;;;;;19.10;16.88;;;16.50;90.50;;;;;;4981924;28;20339;-44
2022/09/10 09:04:19;;;;;;;33.88;22.20;;;16.50;90.60;;;;;;4996907;28;20038;-49
2022/09/10 09:06:55;;;;;;;41.95;23.00;;;16.50;90.60;;;;;;4973900;28;20029;-46
2022/09/10 09:09:21;;;;;;;24.35;20.58;;;16.50;90.50;;;;;;4986017;28;20015;-50
2022/09/10 09:12:07;;;;;;;24.67;19.35;;;16.50;90.20;;;;;;4989011;28;20454;-49
2022/09/10 09:14:48;;;;;;;31.48;18.30;;;16.60;90.40;;;;;;4992407;28;20033;-46
2022/09/10 09:17:23;;;;;;;30.45;22.67;;;16.70;90.40;;;;;;4978228;28;20031;-47
2022/09/10 09:20:14;;;;;;;57.42;27.80;;;16.70;90.10;;;;;;4993167;28;20097;-49
2022/09/10 09:23:16;;;;;;;42.97;24.25;;;16.80;89.90;;;;;;4988632;28;20467;-47
2022/09/10 09:25:57;;;;;;;23.05;20.60;;;16.90;89.30;;;;;;4967525;28;20101;-45
2022/09/10 09:28:39;;;;;;;53.92;23.42;;;17.10;89.20;;;;;;4981458;28;20092;-46
2022/09/10 09:31:12;;;;;;;37.85;19.92;;;17.20;88.90;;;;;;4988471;28;20030;-47
2022/09/10 09:33:39;;;;;;;21.85;18.23;;;17.40;89.00;;;;;;4991325;28;20050;-47
2022/09/10 09:36:08;;;;;;;19.05;17.23;;;17.50;88.20;;;;;;4990971;28;20109;-45
2022/09/10 09:38:41;;;;;;;23.73;20.55;;;17.60;87.90;;;;;;4991922;28;20026;-44
2022/09/10 09:41:20;;;;;;;19.98;17.88;;;17.70;87.40;;;;;;4978931;28;20057;-46
2022/09/10 09:43:55;;;;;;;22.95;20.55;;;17.90;87.90;;;;;;4989287;28;20112;-45
2022/09/10 09:46:23;;;;;;;20.60;18.15;;;18.00;87.30;;;;;;4990523;28;20038;-44
2022/09/10 09:48:53;;;;;;;19.83;17.85;;;18.10;86.30;;;;;;4989918;28;20041;-47
2022/09/10 09:51:24;;;;;;;;;;;18.20;86.50;;;;;;4990779;28;20484;-46
2022/09/10 09:53:57;;;;;;;20.45;16.75;;;18.30;85.80;;;;;;4981056;28;19924;-49
2022/09/10 09:56:28;;;;;;;24.77;17.50;;;18.40;86.40;;;;;;4976544;28;20475;-47
2022/09/10 09:58:54;;;;;;;22.13;19.80;;;18.40;86.10;;;;;;4985813;28;20038;-48
2022/09/10 10:01:23;;;;;;;21.30;19.10;;;18.40;85.60;;;;;;4984623;28;20126;-45
2022/09/10 10:03:57;;;;;;;19.70;17.13;;;18.40;84.40;;;;;;4995758;28;20112;-44
2022/09/10 10:06:30;;;;;;;26.17;16.65;;;18.30;84.40;;;;;;4984659;28;20378;-46
2022/09/10 10:09:03;;;;;;;19.73;16.90;;;18.30;84.70;;;;;;4985488;28;20026;-46
2022/09/10 10:11:46;;;;;;;20.02;17.55;;;18.30;84.50;;;;;;4984409;28;20041;-47
2022/09/10 10:14:29;;;;;;;19.30;17.40;;;18.40;84.40;;;;;;4989144;28;20490;-46
2022/09/10 10:16:59;;;;;;;18.15;15.82;;;18.40;85.20;;;;;;4973207;28;20391;-47
2022/09/10 10:19:32;;;;;;;22.42;18.05;;;18.50;84.30;;;;;;4972140;28;20352;-48
2022/09/10 10:22:13;;;;;;;19.98;17.63;;;18.50;84.10;;;;;;4987127;28;20131;-46
2022/09/10 10:24:47;;;;;;;70.22;22.92;;;18.40;83.20;;;;;;4981066;28;20047;-48
2022/09/10 10:27:35;;;;;;;23.55;19.27;;;18.50;84.20;;;;;;5003470;28;20112;-46
2022/09/10 10:30:06;;;;;;;23.92;18.98;;;18.70;83.50;;;;;;4980990;28;20026;-46
2022/09/10 10:32:43;;;;;;;25.30;19.83;;;18.90;84.20;;;;;;4982135;28;20359;-46
2022/09/10 10:35:23;;;;;;;23.60;18.27;;;19.40;83.10;;;;;;4985468;28;20026;-46
2022/09/10 10:38:19;;;;;;;18.40;16.33;;;19.90;81.70;;;;;;4988386;28;20027;-48
2022/09/10 10:41:04;;;;;;;17.92;15.10;;;20.20;79.50;;;;;;4984203;28;20444;-47
2022/09/10 10:44:05;;;;;;;19.63;15.70;;;20.60;79.50;;;;;;4990241;28;20022;-46
2022/09/10 10:46:57;;;;;;;14.52;12.75;;;20.80;75.70;;;;;;4951032;28;20554;-48
2022/09/10 10:50:02;;;;;;;15.50;12.57;;;21.20;76.40;;;;;;4957507;28;20036;-47
2022/09/10 10:52:33;;;;;;;15.73;14.02;;;21.50;77.40;;;;;;4959392;28;20866;-47
2022/09/10 10:55:08;;;;;;;15.02;12.57;;;21.60;73.00;;;;;;4969675;28;20043;-47
2022/09/10 10:57:42;;;;;;;14.75;12.15;;;21.60;71.90;;;;;;4967437;28;20035;-48
2022/09/10 11:00:13;;;;;;;13.70;10.45;;;21.50;72.80;;;;;;4968006;28;20045;-47
2022/09/10 11:02:54;;;;;;;13.40;11.98;;;21.40;72.90;;;;;;4950627;28;20534;-48
2022/09/10 11:05:29;;;;;;;12.73;9.07;;;21.40;72.70;;;;;;4959200;28;20035;-48
2022/09/10 11:08:19;;;;;;;14.40;12.18;;;21.50;72.00;;;;;;4948971;28;20039;-47
2022/09/10 11:11:14;;;;;;;14.85;13.38;;;21.40;70.60;;;;;;4968108;28;20042;-47
2022/09/10 11:13:50;;;;;;;13.38;11.98;;;21.00;73.10;;;;;;4965671;28;20109;-46
2022/09/10 11:16:24;;;;;;;15.80;13.35;;;20.90;75.30;;;;;;4960906;28;20333;-50
2022/09/10 11:18:56;;;;;;;16.25;14.73;;;20.90;76.20;;;;;;4953059;28;20101;-48
2022/09/10 11:21:48;;;;;;;18.00;13.45;;;20.70;75.10;;;;;;4973504;28;20104;-47
2022/09/10 11:24:40;;;;;;;13.00;11.70;;;20.40;77.20;;;;;;4970957;28;20028;-47
2022/09/10 11:27:11;;;;;;;13.30;11.80;;;20.30;76.90;;;;;;4988905;28;20102;-47
2022/09/10 11:30:09;;;;;;;14.30;12.60;;;20.30;77.40;;;;;;4989510;28;20375;-45
2022/09/10 11:32:44;;;;;;;18.45;13.88;;;20.20;79.00;;;;;;4985878;28;20031;-51
2022/09/10 11:35:25;;;;;;;21.52;16.35;;;20.30;78.90;;;;;;4971081;28;20081;-46
2022/09/10 11:37:56;;;;;;;21.20;16.08;;;20.00;79.20;;;;;;4989597;28;20070;-45
2022/09/10 11:41:02;;;;;;;20.25;17.25;;;19.80;80.20;;;;;;4978567;28;20145;-45
2022/09/10 11:43:48;;;;;;;15.75;14.18;;;19.50;81.00;;;;;;4988460;28;20606;-45
2022/09/10 11:46:25;;;;;;;17.00;15.32;;;19.40;82.00;;;;;;4971036;28;20039;-46
2022/09/10 11:49:39;;;;;;;15.80;14.30;;;19.20;82.60;;;;;;4984054;28;20091;-46
2022/09/10 11:52:07;;;;;;;16.35;14.75;;;19.20;81.50;;;;;;4979735;28;20042;-48
2022/09/10 11:54:34;;;;;;;18.42;15.80;;;19.30;83.20;;;;;;4989587;28;20026;-52
2022/09/10 11:57:18;;;;;;;15.82;14.23;;;19.40;82.40;;;;;;4971339;28;20388;-47
2022/09/10 12:00:11;;;;;;;16.92;15.30;;;19.60;82.80;;;;;;4986870;28;20038;-46
2022/09/10 12:03:14;;;;;;;18.23;15.63;;;19.60;81.30;;;;;;4989278;28;20029;-47
2022/09/10 12:05:57;;;;;;;18.35;14.27;;;19.60;81.30;;;;;;4988415;28;20081;-49
2022/09/10 12:08:58;;;;;;;19.17;14.75;;;19.70;80.50;;;;;;4972527;28;20111;-47
2022/09/10 12:11:46;;;;;;;16.50;14.90;;;19.90;82.20;;;;;;4988042;28;20045;-47
2022/09/10 12:14:17;;;;;;;19.30;13.88;;;19.90;80.60;;;;;;4989336;28;20499;-49
2022/09/10 12:16:57;;;;;;;19.58;15.50;;;20.00;80.30;;;;;;4989066;28;20030;-47
2022/09/10 12:19:37;;;;;;;15.65;13.93;;;20.00;80.80;;;;;;4999928;28;20026;-48
2022/09/10 12:22:16;;;;;;;14.88;13.07;;;19.90;79.40;;;;;;4972386;28;20031;-48
2022/09/10 12:24:55;;;;;;;19.60;13.67;;;19.90;79.20;;;;;;4965666;28;20577;-48
2022/09/10 12:27:51;;;;;;;17.48;15.60;;;19.80;79.30;;;;;;4988589;28;20045;-47
2022/09/10 12:30:41;;;;;;;14.18;12.70;;;19.80;80.20;;;;;;4983638;28;20485;-47
2022/09/10 12:33:18;;;;;;;15.90;13.40;;;19.90;80.00;;;;;;4978154;28;20088;-47
2022/09/10 12:35:49;;;;;;;15.93;14.18;;;19.90;79.20;;;;;;4989175;28;20030;-48
2022/09/10 12:38:53;;;;;;;15.98;13.73;;;20.10;78.70;;;;;;4987785;28;20467;-47
2022/09/10 12:41:22;;;;;;;17.45;14.73;;;20.30;79.20;;;;;;4987938;28;20038;-47
2022/09/10 12:43:48;;;;;;;14.85;12.85;;;20.30;78.30;;;;;;4979728;28;20456;-47
2022/09/10 12:46:18;;;;;;;18.88;14.18;;;20.30;79.90;;;;;;4979721;28;20066;-48
2022/09/10 12:49:03;;;;;;;18.75;15.23;;;20.00;77.90;;;;;;4968524;28;20031;-47
2022/09/10 12:51:48;;;;;;;23.70;16.50;;;19.90;78.30;;;;;;4988180;28;20753;-49
2022/09/10 12:54:50;;;;;;;22.00;14.35;;;19.70;79.40;;;;;;5002503;28;20034;-52
2022/09/10 12:57:22;;;;;;;16.73;15.00;;;19.70;80.40;;;;;;4988814;28;20026;-46